Cuaca Aktual Bandara Mali

Waktu Pengamatan : 2021-05-13 09:00:00 WITA


DAY-CLEAR-CLOUDY
Cerah - berawan
Suhu Udara
31 °C
Titik Embun
24 °C

Tekanan Udara 1009 hPa
Jarak Pandang >=10 km

Barat
Arah Angin
dari Barat Laut
Kec. Angin
7.4 km/jam
METAR Terkini : METAR WATM 130100Z 32004KT 9999 FEW020 31/24 Q1009|NOSIG=